createdAt,value
2023-03-15T00:00:42.763Z,3.70
2023-03-15T00:04:46.427Z,3.60
2023-03-15T00:09:39.738Z,3.50
2023-03-15T00:13:45.341Z,3.40
2023-03-15T00:17:49.078Z,3.40
2023-03-15T00:22:12.027Z,3.30
2023-03-15T00:26:18.140Z,3.30
2023-03-15T00:30:23.325Z,3.30
2023-03-15T00:34:30.486Z,3.30
2023-03-15T00:38:34.456Z,3.30
2023-03-15T00:42:38.070Z,3.30
2023-03-15T00:46:44.432Z,3.20
2023-03-15T00:50:48.060Z,3.20
2023-03-15T00:54:54.367Z,3.10
2023-03-15T00:58:58.861Z,3.10
2023-03-15T01:03:35.066Z,3.10
2023-03-15T01:07:40.065Z,2.90
2023-03-15T01:12:10.760Z,3.00
2023-03-15T01:16:15.730Z,2.90
2023-03-15T01:20:21.369Z,2.80
2023-03-15T01:25:25.889Z,2.60
2023-03-15T01:29:29.683Z,2.50
2023-03-15T01:33:33.577Z,2.40
2023-03-15T01:38:14.854Z,2.40
2023-03-15T01:42:20.236Z,2.20
2023-03-15T01:46:27.633Z,2.10
2023-03-15T01:50:37.530Z,2.20
2023-03-15T01:54:45.080Z,2.20
2023-03-15T01:58:54.480Z,2.20
2023-03-15T02:03:02.188Z,2.10
2023-03-15T02:07:19.346Z,2.00
2023-03-15T02:11:43.261Z,1.90
2023-03-15T02:15:48.593Z,1.90
2023-03-15T02:20:27.461Z,1.80
2023-03-15T02:24:56.433Z,1.70
2023-03-15T02:29:02.994Z,1.70
2023-03-15T02:33:10.646Z,1.70
2023-03-15T02:37:24.572Z,1.70
2023-03-15T02:41:33.350Z,1.70
2023-03-15T02:46:18.165Z,1.80
2023-03-15T02:50:23.326Z,1.60
2023-03-15T02:54:44.402Z,1.70
2023-03-15T02:58:48.176Z,1.60
2023-03-15T03:02:51.930Z,1.60
2023-03-15T03:07:01.982Z,1.60
2023-03-15T03:11:13.888Z,1.60
2023-03-15T03:15:17.621Z,1.60
2023-03-15T03:19:25.873Z,1.60
2023-03-15T03:23:34.103Z,1.50
2023-03-15T03:27:39.252Z,1.50
2023-03-15T03:31:45.825Z,1.60
2023-03-15T03:36:05.251Z,1.50
2023-03-15T03:40:12.495Z,1.60
2023-03-15T03:44:35.237Z,1.50
2023-03-15T03:48:38.942Z,1.40
2023-03-15T03:53:12.054Z,1.40
2023-03-15T03:58:07.532Z,1.30
2023-03-15T04:02:34.392Z,1.20
2023-03-15T04:06:46.178Z,1.20
2023-03-15T04:10:53.411Z,1.20
2023-03-15T04:15:24.824Z,1.20
2023-03-15T04:19:30.134Z,1.10
2023-03-15T04:23:34.719Z,1.10
2023-03-15T04:27:59.072Z,1.10
2023-03-15T04:32:21.370Z,1.10
2023-03-15T04:36:34.454Z,1.10
2023-03-15T04:41:11.036Z,1.00
2023-03-15T04:45:33.899Z,0.90
2023-03-15T04:50:24.572Z,0.90
2023-03-15T04:54:58.809Z,0.80
2023-03-15T04:59:25.464Z,0.50
2023-03-15T05:03:47.491Z,0.30
2023-03-15T05:08:18.989Z,0.00
2023-03-15T05:12:46.925Z,-0.10
2023-03-15T05:17:04.249Z,-0.20
2023-03-15T05:21:27.013Z,-0.30
2023-03-15T05:25:54.325Z,-0.40
2023-03-15T05:30:27.542Z,-0.10
2023-03-15T05:34:43.052Z,-0.10
2023-03-15T05:39:05.181Z,-0.10
2023-03-15T05:43:29.044Z,-0.20
2023-03-15T05:48:03.519Z,-0.10
2023-03-15T05:52:26.592Z,-0.10
2023-03-15T05:56:49.834Z,-0.30
2023-03-15T06:01:12.063Z,-0.10
2023-03-15T06:05:42.973Z,-0.20
2023-03-15T06:10:07.617Z,-0.30
2023-03-15T06:14:11.419Z,-0.30
2023-03-15T06:18:26.052Z,-0.30
2023-03-15T06:22:33.327Z,-0.40
2023-03-15T06:27:36.652Z,-0.40
2023-03-15T06:31:41.222Z,-0.40
2023-03-15T06:35:47.844Z,-0.40
2023-03-15T06:40:12.361Z,-0.50
2023-03-15T06:44:16.086Z,-0.50
2023-03-15T06:48:21.567Z,-0.30
2023-03-15T06:52:25.612Z,-0.30
2023-03-15T06:56:37.592Z,-0.10
2023-03-15T07:00:41.267Z,-0.20
2023-03-15T07:04:46.001Z,0.00
2023-03-15T07:09:41.873Z,-0.10
2023-03-15T07:13:47.163Z,0.00
2023-03-15T07:17:50.764Z,0.10
2023-03-15T07:22:01.554Z,0.20
2023-03-15T07:26:05.426Z,0.20
2023-03-15T07:30:12.335Z,0.30
2023-03-15T07:34:20.575Z,0.40
2023-03-15T07:38:25.833Z,0.60
2023-03-15T07:42:29.385Z,0.60
2023-03-15T07:46:42.778Z,0.60
2023-03-15T07:50:47.442Z,0.70
2023-03-15T07:54:51.052Z,0.60
2023-03-15T07:58:58.378Z,0.60
2023-03-15T08:03:03.517Z,0.60
2023-03-15T08:07:35.730Z,0.40
2023-03-15T08:11:39.635Z,0.50
2023-03-15T08:15:46.638Z,0.40
2023-03-15T08:19:52.910Z,0.50
2023-03-15T08:23:56.478Z,0.70
2023-03-15T08:28:01.230Z,0.70
2023-03-15T08:32:05.230Z,0.80
2023-03-15T08:36:49.734Z,0.70
2023-03-15T08:40:59.416Z,0.70
2023-03-15T08:45:03.138Z,0.80
2023-03-15T08:49:35.239Z,1.10
2023-03-15T08:53:38.749Z,1.40
2023-03-15T08:57:44.800Z,1.70
2023-03-15T09:02:27.676Z,1.60
2023-03-15T09:06:36.603Z,1.50
2023-03-15T09:15:08.037Z,1.70
2023-03-15T09:19:22.111Z,1.50
2023-03-15T09:23:27.962Z,1.90
2023-03-15T09:27:32.646Z,1.90
2023-03-15T09:37:15.147Z,2.00
2023-03-15T09:41:31.256Z,2.30
2023-03-15T09:46:21.265Z,2.40
2023-03-15T09:51:10.044Z,2.50
2023-03-15T10:01:19.950Z,2.70
2023-03-15T10:05:41.912Z,3.20
2023-03-15T10:09:49.039Z,3.30
2023-03-15T10:14:07.660Z,3.40
2023-03-15T10:18:38.384Z,3.40
2023-03-15T10:22:51.415Z,3.30
2023-03-15T10:27:22.257Z,3.90
2023-03-15T10:31:44.149Z,3.70
2023-03-15T10:35:58.658Z,3.70
2023-03-15T10:44:38.887Z,3.80
2023-03-15T10:48:54.867Z,3.70
2023-03-15T10:53:04.288Z,3.80
2023-03-15T10:57:19.985Z,4.10
2023-03-15T11:01:52.849Z,3.70
2023-03-15T11:05:58.184Z,3.80
2023-03-15T11:10:26.234Z,4.20
2023-03-15T11:14:38.685Z,4.30
2023-03-15T11:18:53.985Z,4.40
2023-03-15T11:22:58.413Z,4.50
2023-03-15T11:27:05.682Z,4.60
2023-03-15T11:31:09.905Z,4.50
2023-03-15T11:35:16.892Z,4.90
2023-03-15T11:39:31.332Z,5.20
2023-03-15T11:43:50.264Z,5.40
2023-03-15T11:48:01.918Z,5.20
2023-03-15T11:52:07.140Z,5.10
2023-03-15T11:57:07.109Z,5.30
2023-03-15T12:01:30.236Z,5.70
2023-03-15T12:05:49.462Z,5.90
2023-03-15T12:09:56.682Z,5.70
2023-03-15T12:14:52.552Z,5.10
2023-03-15T12:19:03.618Z,5.20
2023-03-15T12:23:30.726Z,5.30
2023-03-15T12:27:39.219Z,5.50
2023-03-15T12:31:59.299Z,5.60
2023-03-15T12:40:57.563Z,5.80
2023-03-15T13:08:56.134Z,5.40
2023-03-15T13:44:42.550Z,5.70
2023-03-15T14:04:54.032Z,4.90
2023-03-15T14:09:34.260Z,4.70
2023-03-15T14:14:02.739Z,5.00
2023-03-15T14:18:27.919Z,5.30
2023-03-15T14:22:33.413Z,5.30
2023-03-15T14:26:38.935Z,5.20
2023-03-15T14:30:43.254Z,5.40
2023-03-15T14:35:03.871Z,5.00
2023-03-15T14:39:26.829Z,4.60
2023-03-15T14:43:33.617Z,4.50
2023-03-15T14:48:30.582Z,4.50
2023-03-15T14:52:46.894Z,4.20
2023-03-15T14:56:52.480Z,3.90
2023-03-15T15:01:22.677Z,3.80
2023-03-15T15:05:28.612Z,3.70
2023-03-15T15:09:38.450Z,3.50
2023-03-15T15:13:46.988Z,3.50
2023-03-15T15:17:54.374Z,3.80
2023-03-15T15:21:59.636Z,3.70
2023-03-15T15:26:05.391Z,3.70
2023-03-15T15:30:17.717Z,3.40
2023-03-15T15:34:23.319Z,3.30
2023-03-15T15:38:33.365Z,3.20
2023-03-15T15:42:40.036Z,3.30
2023-03-15T15:47:11.363Z,3.30
2023-03-15T15:51:22.535Z,3.20
2023-03-15T15:56:28.677Z,3.20
2023-03-15T16:00:34.368Z,3.30
2023-03-15T16:10:48.216Z,3.10
2023-03-15T16:14:55.162Z,3.10
2023-03-15T16:19:29.024Z,3.00
2023-03-15T16:23:40.444Z,2.90
2023-03-15T16:27:48.704Z,2.80
2023-03-15T16:32:32.870Z,2.70
2023-03-15T17:10:57.558Z,1.70
2023-03-15T17:15:09.007Z,1.70
2023-03-15T17:19:18.554Z,1.60
2023-03-15T17:23:25.567Z,1.60
2023-03-15T17:27:38.406Z,1.60
2023-03-15T17:31:42.896Z,1.50
2023-03-15T17:35:57.639Z,1.50
2023-03-15T17:40:15.419Z,1.40
2023-03-15T17:44:24.951Z,1.20
2023-03-15T17:48:36.324Z,1.20
2023-03-15T17:52:59.249Z,1.10
2023-03-15T17:57:16.811Z,1.10
2023-03-15T18:01:32.047Z,1.00
2023-03-15T18:05:45.655Z,0.90
2023-03-15T18:09:50.528Z,0.80
2023-03-15T18:14:44.723Z,0.80
2023-03-15T18:18:49.687Z,0.70
2023-03-15T18:23:44.677Z,0.60
2023-03-15T18:27:51.366Z,0.60
2023-03-15T18:31:55.074Z,0.60
2023-03-15T18:36:29.342Z,0.80
2023-03-15T18:40:34.708Z,0.80
2023-03-15T18:44:44.152Z,0.80
2023-03-15T18:48:48.349Z,0.70
2023-03-15T18:53:55.283Z,0.70
2023-03-15T18:58:02.874Z,0.60
2023-03-15T19:02:33.730Z,0.60
2023-03-15T19:06:37.801Z,0.70
2023-03-15T19:10:44.721Z,0.60
2023-03-15T19:14:51.123Z,0.70
2023-03-15T19:18:56.279Z,0.60
2023-03-15T19:23:04.210Z,0.50
2023-03-15T19:27:08.486Z,0.40
2023-03-15T19:31:44.381Z,0.40
2023-03-15T19:35:52.704Z,0.30
2023-03-15T19:40:14.431Z,0.40
2023-03-15T19:44:46.061Z,0.40
2023-03-15T19:49:18.527Z,0.40
2023-03-15T19:53:22.311Z,0.50
2023-03-15T19:57:33.300Z,0.40
2023-03-15T20:01:37.089Z,0.30
2023-03-15T20:05:42.180Z,0.20
2023-03-15T20:09:48.211Z,0.00
2023-03-15T20:13:54.994Z,-0.10
2023-03-15T20:18:51.298Z,0.00
2023-03-15T20:22:56.780Z,-0.10
2023-03-15T20:27:02.725Z,-0.10
2023-03-15T20:31:10.513Z,-0.20
2023-03-15T20:35:15.340Z,-0.20
2023-03-15T20:39:25.781Z,-0.30
2023-03-15T20:43:29.339Z,-0.40
2023-03-15T20:47:35.557Z,-0.40
2023-03-15T20:52:28.910Z,-0.40
2023-03-15T20:56:34.665Z,-0.30
2023-03-15T21:00:41.247Z,-0.30
2023-03-15T21:09:49.996Z,-0.60
2023-03-15T21:13:55.913Z,-0.70
2023-03-15T21:18:01.825Z,-0.70
2023-03-15T21:22:05.376Z,-0.70
2023-03-15T21:26:12.208Z,-0.80
2023-03-15T21:30:17.555Z,-0.70
2023-03-15T21:34:49.968Z,-0.70
2023-03-15T21:38:53.878Z,-0.80
2023-03-15T21:43:23.311Z,-0.90
2023-03-15T21:47:28.803Z,-1.00
2023-03-15T21:51:34.472Z,-1.10
2023-03-15T21:55:40.537Z,-1.00
2023-03-15T21:59:45.315Z,-0.90
2023-03-15T22:03:53.455Z,-1.00
2023-03-15T22:07:58.149Z,-0.90
2023-03-15T22:12:02.195Z,-0.90
2023-03-15T22:16:08.122Z,-0.90
2023-03-15T22:20:17.225Z,-1.00
2023-03-15T22:24:20.996Z,-1.00
2023-03-15T22:28:25.553Z,-1.00
2023-03-15T22:32:29.171Z,-1.20
2023-03-15T22:36:35.204Z,-1.20
2023-03-15T22:40:40.250Z,-1.10
2023-03-15T22:44:47.029Z,-1.10
2023-03-15T22:48:52.169Z,-1.10
2023-03-15T22:52:58.374Z,-1.20
2023-03-15T22:57:01.931Z,-1.20
2023-03-15T23:01:05.946Z,-1.20
2023-03-15T23:05:12.669Z,-1.30
2023-03-15T23:09:17.782Z,-1.30
2023-03-15T23:13:23.678Z,-1.40
2023-03-15T23:17:27.742Z,-1.40
2023-03-15T23:21:35.328Z,-1.50
2023-03-15T23:25:41.276Z,-1.60
2023-03-15T23:29:54.389Z,-1.60
2023-03-15T23:34:01.588Z,-1.60
2023-03-15T23:38:58.556Z,-1.70
2023-03-15T23:43:04.536Z,-1.80
2023-03-15T23:47:08.650Z,-1.80
2023-03-15T23:51:12.817Z,-1.80
2023-03-15T23:55:41.998Z,-1.90
2023-03-15T23:59:47.351Z,-2.00
